Time;durP1;ratioP1;P1;durP2;ratioP2;P2;SDS_P1;SDS_P2;PMS_P1;PMS_P2;Temp;Humidity;BMP_temperature;BMP_pressure;BME280_temperature;BME280_humidity;BME280_pressure;Samples;Min_cycle;Max_cycle;Signal;HPM_P1;HPM_P2
2022/12/19 00:01:34;;;;;;;24.33;10.83;;;-2.00;99.90;;;;;;6394970;23;20007;-59
2022/12/19 00:04:14;;;;;;;19.20;10.33;;;-2.00;99.90;;;;;;6419432;23;20012;-60
2022/12/19 00:06:50;;;;;;;22.33;11.33;;;-2.00;99.90;;;;;;6379109;23;20038;-61
2022/12/19 00:09:23;;;;;;;23.47;11.10;;;-2.10;99.90;;;;;;6421204;23;20026;-61
2022/12/19 00:11:57;;;;;;;22.33;10.45;;;-2.10;99.90;;;;;;6421608;23;20516;-59
2022/12/19 00:14:31;;;;;;;;;;;-2.20;99.90;;;;;;6370537;23;20224;-59
2022/12/19 00:17:07;;;;;;;23.97;10.77;;;-2.10;99.90;;;;;;6422960;23;19908;-60
2022/12/19 00:19:40;;;;;;;23.03;9.73;;;-2.10;99.90;;;;;;6395900;23;20048;-60
2022/12/19 00:22:23;;;;;;;18.88;10.68;;;-2.10;99.90;;;;;;6370569;23;20198;-60
2022/12/19 00:24:54;;;;;;;19.43;10.73;;;-2.10;99.90;;;;;;6372181;23;19999;-60
2022/12/19 00:27:28;;;;;;;20.67;10.33;;;-2.10;99.90;;;;;;6406757;23;19996;-60
2022/12/19 00:30:01;;;;;;;17.42;8.55;;;-2.10;99.90;;;;;;6422926;23;20056;-59
2022/12/19 00:32:33;;;;;;;25.60;12.30;;;-2.10;99.90;;;;;;6346047;23;20003;-60
2022/12/19 00:35:04;;;;;;;13.07;7.30;;;-2.10;99.90;;;;;;6422874;23;20036;-61
2022/12/19 00:37:39;;;;;;;15.33;10.37;;;-2.10;99.90;;;;;;6422608;23;20014;-60
2022/12/19 00:40:13;;;;;;;19.30;10.67;;;-2.10;99.90;;;;;;6422675;23;20048;-60
2022/12/19 00:42:46;;;;;;;24.20;11.70;;;-2.10;99.90;;;;;;6422592;23;20300;-59
2022/12/19 00:45:20;;;;;;;25.03;12.43;;;-2.10;99.90;;;;;;6371873;23;19999;-60
2022/12/19 00:47:55;;;;;;;21.60;12.23;;;-2.10;99.90;;;;;;6372512;23;20004;-59
2022/12/19 00:50:32;;;;;;;18.40;9.33;;;-2.10;99.90;;;;;;6394727;23;19993;-60
2022/12/19 00:53:03;;;;;;;22.90;13.07;;;-2.10;99.90;;;;;;6422796;23;20040;-60
2022/12/19 00:55:37;;;;;;;20.97;10.27;;;-2.10;99.90;;;;;;6422727;23;20003;-60
2022/12/19 00:58:11;;;;;;;25.05;11.95;;;-2.10;99.90;;;;;;6396681;23;19996;-59
2022/12/19 01:00:42;;;;;;;23.13;11.70;;;-2.10;99.90;;;;;;6419666;23;20000;-60
2022/12/19 01:03:17;;;;;;;17.60;9.47;;;-2.10;99.90;;;;;;6386507;23;20028;-61
2022/12/19 01:05:52;;;;;;;22.27;9.43;;;-2.10;99.90;;;;;;6411557;22;20012;-61
2022/12/19 01:08:26;;;;;;;21.73;9.82;;;-2.10;99.90;;;;;;6453025;23;20004;-60
2022/12/19 01:11:04;;;;;;;18.52;8.73;;;-2.00;99.90;;;;;;6453790;23;20011;-62
2022/12/19 01:13:40;;;;;;;20.85;10.55;;;-2.10;99.90;;;;;;6451522;23;20004;-61
2022/12/19 01:16:15;;;;;;;21.20;10.67;;;-2.10;99.90;;;;;;6464472;23;20010;-60
2022/12/19 01:18:50;;;;;;;20.63;10.43;;;-2.10;99.90;;;;;;6424693;23;20010;-61
2022/12/19 01:21:26;;;;;;;14.37;8.97;;;-2.10;99.90;;;;;;6426470;23;20007;-62
2022/12/19 01:24:05;;;;;;;19.02;11.43;;;-2.10;99.90;;;;;;6425021;23;20000;-61
2022/12/19 01:26:38;;;;;;;19.40;7.43;;;-2.10;99.90;;;;;;6461360;23;20004;-62
2022/12/19 01:29:09;;;;;;;13.80;7.28;;;-2.00;99.90;;;;;;6451937;23;20168;-59
2022/12/19 01:31:43;;;;;;;16.03;7.50;;;-2.00;99.90;;;;;;6452324;23;19996;-60
2022/12/19 01:34:15;;;;;;;14.50;9.23;;;-2.00;99.90;;;;;;6400950;23;20002;-60
2022/12/19 01:36:48;;;;;;;18.93;11.27;;;-1.90;99.90;;;;;;6424549;23;20434;-60
2022/12/19 01:39:20;;;;;;;17.55;8.18;;;-1.90;99.90;;;;;;6452945;23;20192;-59
2022/12/19 01:41:51;;;;;;;15.10;7.43;;;-1.90;99.90;;;;;;6427196;23;20055;-60
2022/12/19 01:44:24;;;;;;;11.37;7.20;;;-1.90;99.90;;;;;;6454063;23;20531;-59
2022/12/19 01:46:59;;;;;;;6.63;4.38;;;-1.80;99.90;;;;;;6425354;23;20007;-60
2022/12/19 01:49:33;;;;;;;17.80;9.40;;;-1.70;99.90;;;;;;6453247;23;20071;-59
2022/12/19 01:52:11;;;;;;;10.67;5.77;;;-1.70;99.90;;;;;;6426498;23;20051;-58
2022/12/19 01:54:42;;;;;;;20.77;9.60;;;-1.70;99.90;;;;;;6452025;23;20469;-60
2022/12/19 01:57:18;;;;;;;15.53;9.47;;;-1.70;99.90;;;;;;6400107;23;20422;-58
2022/12/19 01:59:55;;;;;;;12.87;7.40;;;-1.70;99.90;;;;;;6453562;23;20043;-61
2022/12/19 02:02:36;;;;;;;18.60;8.33;;;-1.70;99.90;;;;;;6452447;22;20014;-60
2022/12/19 02:05:10;;;;;;;10.00;5.30;;;-1.70;99.90;;;;;;6438039;22;20022;-59
2022/12/19 02:07:45;;;;;;;15.05;7.97;;;-1.60;99.90;;;;;;6431762;23;20007;-60
2022/12/19 02:10:19;;;;;;;15.50;6.90;;;-1.60;99.90;;;;;;6420802;23;20015;-60
2022/12/19 02:12:54;;;;;;;7.20;4.33;;;-1.50;99.90;;;;;;6419563;23;19996;-61
2022/12/19 02:15:37;;;;;;;14.77;7.47;;;-1.50;99.90;;;;;;6455970;23;19999;-60
2022/12/19 02:18:21;;;;;;;15.48;7.55;;;-1.50;99.90;;;;;;6443444;23;20323;-60
2022/12/19 02:21:22;;;;;;;13.52;7.28;;;-1.50;99.90;;;;;;6421481;23;20512;-60
2022/12/19 02:24:06;;;;;;;15.88;8.05;;;-1.50;99.90;;;;;;6421726;23;20055;-60
2022/12/19 02:27:02;;;;;;;16.37;7.67;;;-1.50;99.90;;;;;;6420461;23;20007;-64
2022/12/19 02:29:50;;;;;;;12.63;7.13;;;-1.60;99.90;;;;;;6444965;23;19989;-61
2022/12/19 02:32:58;;;;;;;16.90;7.72;;;-1.50;99.90;;;;;;6419777;23;20084;-61
2022/12/19 02:35:39;;;;;;;16.83;8.07;;;-1.50;99.90;;;;;;6445627;23;20664;-60
2022/12/19 02:38:25;;;;;;;11.98;6.68;;;-1.50;99.90;;;;;;6420026;23;20008;-59
2022/12/19 02:41:44;;;;;;;12.48;6.75;;;-1.50;99.90;;;;;;6422586;23;19997;-60
2022/12/19 02:44:30;;;;;;;14.60;6.57;;;-1.50;99.90;;;;;;6387117;23;20000;-61
2022/12/19 02:47:06;;;;;;;8.68;4.22;;;-1.50;99.90;;;;;;6361823;23;20005;-59
2022/12/19 02:49:42;;;;;;;12.63;6.90;;;-1.40;99.90;;;;;;6387233;23;20143;-59
2022/12/19 02:52:20;;;;;;;11.23;6.78;;;-1.40;99.90;;;;;;6385123;23;20000;-62
2022/12/19 02:55:02;;;;;;;10.23;6.75;;;-1.40;99.90;;;;;;6386780;23;20001;-58
2022/12/19 02:57:55;;;;;;;13.80;6.97;;;-1.50;99.90;;;;;;6337556;23;20189;-60
2022/12/19 03:00:30;;;;;;;12.20;6.47;;;-1.60;99.90;;;;;;6361088;23;20023;-58
2022/12/19 03:03:26;;;;;;;14.33;6.67;;;-1.50;99.90;;;;;;6361894;23;20016;-60
2022/12/19 03:06:18;;;;;;;14.33;7.37;;;-1.50;99.90;;;;;;6369675;23;20079;-59
2022/12/19 03:09:07;;;;;;;14.73;7.88;;;-1.50;99.90;;;;;;6391010;23;20011;-58
2022/12/19 03:11:40;;;;;;;17.83;7.67;;;-1.50;99.90;;;;;;6417130;23;20005;-59
2022/12/19 03:14:17;;;;;;;16.73;8.05;;;-1.40;99.90;;;;;;6416561;23;19992;-59
2022/12/19 03:16:48;;;;;;;14.55;8.10;;;-1.40;99.90;;;;;;6392922;23;20027;-60
2022/12/19 03:19:23;;;;;;;16.57;8.13;;;-1.40;99.90;;;;;;6390993;22;19999;-59
2022/12/19 03:21:54;;;;;;;7.38;5.70;;;-1.40;99.90;;;;;;6456802;22;19995;-60
2022/12/19 03:24:26;;;;;;;18.05;8.50;;;-1.30;99.90;;;;;;6483790;22;20010;-60
2022/12/19 03:27:06;;;;;;;15.90;8.80;;;-1.30;99.90;;;;;;6456410;22;20051;-62
2022/12/19 03:29:42;;;;;;;15.27;8.77;;;-1.30;99.90;;;;;;6484441;22;20039;-59
2022/12/19 03:32:16;;;;;;;15.55;8.23;;;-1.30;99.90;;;;;;6456669;22;19994;-60
2022/12/19 03:34:52;;;;;;;18.70;9.27;;;-1.30;99.90;;;;;;6484266;22;20384;-59
2022/12/19 03:37:30;;;;;;;16.75;8.05;;;-1.30;99.90;;;;;;6482803;22;20170;-58
2022/12/19 03:40:12;;;;;;;10.90;6.38;;;-1.40;99.90;;;;;;6455794;22;20227;-59
2022/12/19 03:43:09;;;;;;;14.73;8.70;;;-1.30;99.90;;;;;;6456421;22;20313;-57
2022/12/19 03:45:44;;;;;;;12.82;7.30;;;-1.40;99.90;;;;;;6484722;22;20059;-60
2022/12/19 03:48:51;;;;;;;16.87;7.50;;;-1.40;99.90;;;;;;6483823;22;20039;-62
2022/12/19 03:51:53;;;;;;;11.73;7.67;;;-1.40;99.90;;;;;;6459575;22;19987;-60
2022/12/19 03:54:30;;;;;;;13.27;6.90;;;-1.40;99.90;;;;;;6486868;22;20370;-60
2022/12/19 03:57:36;;;;;;;17.13;9.23;;;-1.50;99.90;;;;;;6485440;22;20077;-61
2022/12/19 04:00:14;;;;;;;17.67;8.77;;;-1.50;99.90;;;;;;6403477;22;20010;-60
2022/12/19 04:02:52;;;;;;;16.63;8.88;;;-1.50;99.90;;;;;;6484833;22;20058;-60
2022/12/19 04:05:25;;;;;;;15.00;8.88;;;-1.50;99.90;;;;;;6470815;22;20016;-59
2022/12/19 04:08:10;;;;;;;14.88;9.23;;;-1.50;99.90;;;;;;6458956;22;20300;-60
2022/12/19 04:10:55;;;;;;;;;;;-1.50;99.90;;;;;;6486769;22;20615;-58
2022/12/19 04:13:41;;;;;;;15.02;8.45;;;-1.60;99.90;;;;;;6510526;22;20382;-59
2022/12/19 04:16:26;;;;;;;23.53;8.67;;;-1.60;99.90;;;;;;6486497;22;20051;-60
2022/12/19 04:19:10;;;;;;;16.60;9.35;;;-1.60;99.90;;;;;;6459129;22;20017;-60
2022/12/19 04:21:50;;;;;;;13.60;8.23;;;-1.60;99.90;;;;;;6459649;22;19999;-62
2022/12/19 04:24:26;;;;;;;19.30;9.47;;;-1.60;99.90;;;;;;6487064;22;20062;-61
2022/12/19 04:27:02;;;;;;;13.33;8.23;;;-1.50;99.90;;;;;;6484808;22;19995;-61
2022/12/19 04:29:38;;;;;;;27.88;11.82;;;-1.50;99.90;;;;;;6485155;22;19992;-61
2022/12/19 04:32:12;;;;;;;16.05;8.10;;;-1.50;99.90;;;;;;6486123;22;20244;-61
2022/12/19 04:34:43;;;;;;;18.92;8.48;;;-1.50;99.90;;;;;;6486893;22;20047;-60
2022/12/19 04:37:15;;;;;;;13.07;7.75;;;-1.50;99.90;;;;;;6434308;22;20000;-60
2022/12/19 04:39:46;;;;;;;24.83;10.97;;;-1.50;99.90;;;;;;6485857;22;20054;-61
2022/12/19 04:42:19;;;;;;;15.40;9.07;;;-1.50;99.90;;;;;;6458568;22;20058;-62
2022/12/19 04:44:53;;;;;;;14.98;6.55;;;-1.50;99.90;;;;;;6458680;22;20066;-60
2022/12/19 04:47:24;;;;;;;15.05;7.97;;;-1.50;99.90;;;;;;6485179;22;19998;-61
2022/12/19 04:50:01;;;;;;;15.93;8.75;;;-1.50;99.90;;;;;;6457944;22;19999;-59
2022/12/19 04:52:32;;;;;;;18.53;9.63;;;-1.60;99.90;;;;;;6459278;22;20000;-60
2022/12/19 04:55:04;;;;;;;20.77;11.67;;;-1.70;99.90;;;;;;6497003;22;20050;-61
2022/12/19 04:57:40;;;;;;;19.58;9.65;;;-1.70;99.90;;;;;;6483833;22;20004;-58
2022/12/19 05:00:12;;;;;;;16.60;9.75;;;-1.80;99.90;;;;;;6496301;22;20051;-59
2022/12/19 05:02:45;;;;;;;19.08;9.65;;;-1.80;99.90;;;;;;6458800;22;20014;-60
2022/12/19 05:05:19;;;;;;;23.45;10.85;;;-1.80;99.90;;;;;;6470704;22;20107;-61
2022/12/19 05:07:53;;;;;;;19.08;10.13;;;-1.80;99.90;;;;;;6485327;22;20326;-61
2022/12/19 05:10:24;;;;;;;15.65;8.82;;;-1.80;99.90;;;;;;6458036;22;20003;-60
2022/12/19 05:12:55;;;;;;;25.03;11.37;;;-1.80;99.90;;;;;;6486661;22;20111;-60
2022/12/19 05:15:30;;;;;;;15.13;9.00;;;-1.80;99.90;;;;;;6486097;22;20043;-60
2022/12/19 05:18:03;;;;;;;19.07;8.80;;;-1.80;99.90;;;;;;6432626;22;20481;-61
2022/12/19 05:20:35;;;;;;;12.55;7.93;;;-1.90;99.90;;;;;;6458331;22;20512;-62
2022/12/19 05:23:08;;;;;;;19.13;10.80;;;-1.90;99.90;;;;;;6484840;22;20051;-60
2022/12/19 05:25:39;;;;;;;16.27;8.30;;;-1.90;99.90;;;;;;6433557;22;19996;-59
2022/12/19 05:28:15;;;;;;;25.17;11.23;;;-1.90;99.90;;;;;;6485104;22;20006;-61
2022/12/19 05:30:52;;;;;;;25.03;11.70;;;-1.90;99.90;;;;;;6485663;22;20050;-60
2022/12/19 05:33:26;;;;;;;22.75;11.07;;;-1.90;99.90;;;;;;6435584;22;20098;-60
2022/12/19 05:36:05;;;;;;;20.73;9.95;;;-1.90;99.90;;;;;;6432949;22;20002;-59
2022/12/19 05:38:37;;;;;;;19.97;10.13;;;-2.00;99.90;;;;;;6457847;22;19995;-61
2022/12/19 05:41:14;;;;;;;20.02;11.20;;;-2.00;99.90;;;;;;6458229;22;20010;-61
2022/12/19 05:43:50;;;;;;;23.50;11.00;;;-2.00;99.90;;;;;;6458158;22;19999;-60
2022/12/19 05:46:24;;;;;;;24.57;14.00;;;-2.00;99.90;;;;;;6433399;22;20205;-60
2022/12/19 05:48:55;;;;;;;21.92;11.88;;;-2.00;99.90;;;;;;6458504;22;20002;-61
2022/12/19 05:51:30;;;;;;;25.33;12.53;;;-2.10;99.90;;;;;;6457860;22;20002;-61
2022/12/19 05:54:04;;;;;;;27.33;12.40;;;-2.10;99.90;;;;;;6431735;22;20122;-60
2022/12/19 05:56:35;;;;;;;29.53;13.20;;;-2.10;99.90;;;;;;6458502;22;20003;-61
2022/12/19 05:59:10;;;;;;;24.13;11.80;;;-2.10;99.90;;;;;;6458376;22;20426;-61
2022/12/19 06:01:41;;;;;;;20.90;11.68;;;-2.10;99.90;;;;;;6458269;22;20007;-61
2022/12/19 06:04:13;;;;;;;31.67;13.50;;;-2.20;99.90;;;;;;6442726;22;20051;-58
2022/12/19 06:06:45;;;;;;;16.20;8.80;;;-2.20;99.90;;;;;;6433167;22;20004;-59
2022/12/19 06:09:19;;;;;;;28.77;12.10;;;-2.30;99.90;;;;;;6458293;22;20273;-62
2022/12/19 06:11:55;;;;;;;25.50;12.25;;;-2.30;99.90;;;;;;6485116;22;20043;-61
2022/12/19 06:14:26;;;;;;;28.47;12.97;;;-2.30;99.90;;;;;;6431796;22;20006;-60
2022/12/19 06:17:03;;;;;;;17.20;10.90;;;-2.30;99.90;;;;;;6456454;22;20002;-61
2022/12/19 06:19:36;;;;;;;21.43;11.33;;;-2.30;99.90;;;;;;6457574;22;20058;-59
2022/12/19 06:22:11;;;;;;;19.25;11.57;;;-2.40;99.90;;;;;;6485086;22;20066;-57
2022/12/19 06:24:43;;;;;;;23.83;12.73;;;-2.40;99.90;;;;;;6495550;22;20327;-59
2022/12/19 06:27:14;;;;;;;27.17;12.47;;;-2.40;99.90;;;;;;6457856;22;20006;-58
2022/12/19 06:29:51;;;;;;;26.07;12.47;;;-2.30;99.90;;;;;;6457980;22;20008;-59
2022/12/19 06:32:22;;;;;;;16.37;9.00;;;-2.30;99.90;;;;;;6457244;22;20051;-59
2022/12/19 06:35:01;;;;;;;26.17;13.23;;;-2.30;99.90;;;;;;6432491;22;20047;-57
2022/12/19 06:37:39;;;;;;;17.17;9.87;;;-2.20;99.90;;;;;;6431860;22;20305;-58
2022/12/19 06:42:21;;;;;;;30.27;13.13;;;-2.20;99.90;;;;;;6459210;22;20184;-56
2022/12/19 06:43:07;;;;;;;26.83;14.10;;;-2.20;99.90;;;;;;6485132;22;20071;-59
2022/12/19 06:45:41;;;;;;;25.27;13.10;;;-2.20;99.90;;;;;;6457848;22;19998;-59
2022/12/19 06:48:18;;;;;;;26.47;14.10;;;-2.20;99.90;;;;;;6484400;22;19998;-59
2022/12/19 06:50:52;;;;;;;33.07;14.27;;;-2.20;99.90;;;;;;6456957;22;20006;-61
2022/12/19 06:53:26;;;;;;;33.53;15.20;;;-2.20;99.90;;;;;;6458083;22;19995;-59
2022/12/19 06:55:58;;;;;;;28.50;11.65;;;-2.20;99.90;;;;;;6483419;22;20054;-59
2022/12/19 06:58:38;;;;;;;20.53;10.27;;;-2.20;99.90;;;;;;6484653;22;20006;-58
2022/12/19 07:01:32;;;;;;;19.87;10.60;;;-2.20;99.90;;;;;;6458038;22;19992;-59
2022/12/19 07:04:05;;;;;;;;;;;-2.20;99.90;;;;;;6456695;22;20078;-60
2022/12/19 07:06:37;;;;;;;22.23;12.00;;;-2.20;99.90;;;;;;6468697;22;19903;-60
2022/12/19 07:09:08;;;;;;;19.90;11.07;;;-2.20;99.90;;;;;;6457064;22;19992;-60
2022/12/19 07:11:39;;;;;;;30.00;11.73;;;-2.20;99.90;;;;;;6432481;22;20000;-60
2022/12/19 07:14:14;;;;;;;33.83;13.47;;;-2.20;99.90;;;;;;6476575;22;20000;-60
2022/12/19 07:16:49;;;;;;;23.73;11.07;;;-2.20;99.90;;;;;;6484440;22;20339;-59
2022/12/19 07:19:21;;;;;;;22.77;13.47;;;-2.20;99.90;;;;;;6483229;22;20030;-59
2022/12/19 07:21:56;;;;;;;27.70;13.10;;;-2.20;99.90;;;;;;6477557;22;19988;-60
2022/12/19 07:24:33;;;;;;;24.17;10.90;;;-2.20;99.90;;;;;;6484869;22;20529;-59
2022/12/19 07:27:07;;;;;;;19.10;9.20;;;-2.20;99.90;;;;;;6431983;22;20174;-59
2022/12/19 07:29:43;;;;;;;20.70;11.00;;;-2.20;99.90;;;;;;6484257;22;20038;-58
2022/12/19 07:32:15;;;;;;;22.37;10.63;;;-2.20;99.90;;;;;;6484008;22;20051;-58
2022/12/19 07:34:47;;;;;;;21.23;10.60;;;-2.20;99.90;;;;;;6456489;22;20441;-59
2022/12/19 07:37:20;;;;;;;16.20;7.17;;;-2.20;99.90;;;;;;6494618;22;20051;-59
2022/12/19 07:39:54;;;;;;;26.50;11.33;;;-2.10;99.90;;;;;;6484352;22;20050;-59
2022/12/19 07:42:29;;;;;;;16.90;8.97;;;-2.20;99.90;;;;;;6481992;22;20063;-59
2022/12/19 07:45:03;;;;;;;16.97;8.70;;;-2.20;99.90;;;;;;6484359;22;20058;-59
2022/12/19 07:47:36;;;;;;;12.40;8.48;;;-2.30;99.90;;;;;;6455820;22;20491;-60
2022/12/19 07:50:10;;;;;;;20.63;9.38;;;-2.20;99.90;;;;;;6476776;22;20772;-58
2022/12/19 07:52:50;;;;;;;16.02;7.60;;;-2.20;99.90;;;;;;6455618;22;20348;-59
2022/12/19 07:55:21;;;;;;;19.70;8.47;;;-2.10;99.90;;;;;;6455460;22;19999;-59
2022/12/19 07:57:52;;;;;;;23.60;10.00;;;-2.10;99.90;;;;;;6493595;22;19995;-59
2022/12/19 08:00:26;;;;;;;19.83;10.43;;;-2.00;99.90;;;;;;6480190;22;20306;-60
2022/12/19 08:02:58;;;;;;;22.27;12.50;;;-1.90;99.90;;;;;;6456001;22;19996;-59
2022/12/19 08:05:33;;;;;;;19.05;7.95;;;-1.80;99.90;;;;;;6466903;22;20024;-59
2022/12/19 08:08:08;;;;;;;16.23;10.73;;;-1.90;99.90;;;;;;6429694;22;20467;-59
2022/12/19 08:10:42;;;;;;;22.00;10.40;;;-1.80;99.90;;;;;;6430292;22;20002;-59
2022/12/19 08:13:13;;;;;;;17.77;9.18;;;-1.80;99.90;;;;;;6467477;22;20022;-59
2022/12/19 08:15:49;;;;;;;19.67;10.77;;;-1.80;99.90;;;;;;6481725;22;20021;-63
2022/12/19 08:18:21;;;;;;;25.23;10.73;;;-1.80;99.90;;;;;;6456592;22;20372;-59
2022/12/19 08:20:52;;;;;;;22.83;10.00;;;-1.90;99.90;;;;;;6456407;22;20192;-59
2022/12/19 08:23:24;;;;;;;14.33;8.03;;;-1.70;99.90;;;;;;6431982;22;20063;-58
2022/12/19 08:26:06;;;;;;;16.47;8.83;;;-1.80;99.90;;;;;;6455751;22;19995;-59
2022/12/19 08:28:39;;;;;;;15.93;7.37;;;-1.80;99.90;;;;;;6483815;22;20043;-59
2022/12/19 08:31:13;;;;;;;15.20;7.63;;;-1.90;99.90;;;;;;6483072;22;20205;-58
2022/12/19 08:33:46;;;;;;;26.87;10.47;;;-1.80;99.90;;;;;;6456027;22;20006;-58
2022/12/19 08:36:18;;;;;;;17.02;7.63;;;-1.80;99.90;;;;;;6483512;22;20006;-59
2022/12/19 08:38:50;;;;;;;17.25;8.90;;;-1.70;99.90;;;;;;6458562;22;20211;-58
2022/12/19 08:41:22;;;;;;;24.20;10.47;;;-1.60;99.90;;;;;;6485204;22;20002;-59
2022/12/19 08:43:53;;;;;;;23.67;10.67;;;-1.50;99.90;;;;;;6469126;22;19999;-57
2022/12/19 08:46:27;;;;;;;18.97;9.40;;;-1.50;99.90;;;;;;6485957;22;19994;-59
2022/12/19 08:49:01;;;;;;;23.55;10.63;;;-1.40;99.90;;;;;;6484124;22;20059;-59
2022/12/19 08:51:34;;;;;;;19.63;9.35;;;-1.60;99.90;;;;;;6458440;22;20263;-58
2022/12/19 08:54:05;;;;;;;21.67;10.65;;;-1.50;99.90;;;;;;6484746;22;20010;-61
2022/12/19 08:56:37;;;;;;;14.70;7.77;;;-1.50;99.90;;;;;;6430946;22;20000;-58
2022/12/19 08:59:08;;;;;;;21.63;8.93;;;-1.50;99.90;;;;;;6486267;22;20003;-58
2022/12/19 09:01:45;;;;;;;12.20;6.07;;;-1.40;99.90;;;;;;6457109;22;20318;-59
2022/12/19 09:04:16;;;;;;;22.73;10.10;;;-1.40;99.90;;;;;;6443489;22;19994;-58
2022/12/19 09:06:52;;;;;;;16.85;9.30;;;-1.50;99.90;;;;;;6458317;22;20000;-58
2022/12/19 09:09:24;;;;;;;20.45;9.88;;;-1.40;99.90;;;;;;6457447;22;19996;-59
2022/12/19 09:12:03;;;;;;;19.57;7.73;;;-1.40;99.90;;;;;;6456134;22;20071;-58
2022/12/19 09:14:37;;;;;;;18.35;9.95;;;-1.30;99.90;;;;;;6431640;22;20006;-59
2022/12/19 09:17:08;;;;;;;16.63;9.38;;;-1.40;99.90;;;;;;6457145;22;20306;-57
2022/12/19 09:19:39;;;;;;;27.83;9.37;;;-1.50;99.90;;;;;;6456764;22;20010;-59
2022/12/19 09:22:10;;;;;;;28.50;12.43;;;-1.40;99.90;;;;;;6456751;22;20003;-60
2022/12/19 09:24:42;;;;;;;20.85;9.98;;;-1.20;99.90;;;;;;6481342;22;20165;-59
2022/12/19 09:27:13;;;;;;;23.07;11.33;;;-1.10;99.90;;;;;;6432624;22;20189;-60
2022/12/19 09:29:47;;;;;;;25.75;10.82;;;-1.10;99.90;;;;;;6458166;22;20010;-59
2022/12/19 09:32:21;;;;;;;18.10;9.05;;;-1.00;99.90;;;;;;6432367;22;19998;-60
2022/12/19 09:34:55;;;;;;;19.95;9.75;;;-1.10;99.90;;;;;;6484691;22;20017;-58
2022/12/19 09:37:29;;;;;;;14.75;8.38;;;-1.10;99.90;;;;;;6484118;22;20078;-58
2022/12/19 09:40:06;;;;;;;25.07;11.37;;;-1.20;99.90;;;;;;6483211;22;20014;-60
2022/12/19 09:43:05;;;;;;;18.17;7.90;;;-1.00;99.90;;;;;;6484729;22;20003;-59
2022/12/19 09:45:43;;;;;;;22.98;10.05;;;-1.10;99.90;;;;;;6457397;22;19998;-59
2022/12/19 09:48:17;;;;;;;18.20;7.97;;;-1.00;99.90;;;;;;6457055;22;20541;-59
2022/12/19 09:50:58;;;;;;;18.35;9.57;;;-1.00;99.90;;;;;;6457649;22;20010;-59
2022/12/19 09:53:46;;;;;;;10.15;6.50;;;-1.00;99.90;;;;;;6496411;22;20066;-59
2022/12/19 09:56:19;;;;;;;20.17;8.98;;;-1.10;99.90;;;;;;6485686;22;20064;-59
2022/12/19 09:59:00;;;;;;;17.85;8.38;;;-1.10;99.90;;;;;;6485026;22;20004;-59
2022/12/19 10:01:41;;;;;;;25.63;10.50;;;-1.10;99.90;;;;;;6483780;22;20200;-59
2022/12/19 10:04:20;;;;;;;21.20;9.35;;;-1.00;99.90;;;;;;6470021;22;20051;-60
2022/12/19 10:06:54;;;;;;;24.50;10.85;;;-1.00;99.90;;;;;;6457451;22;20013;-60
2022/12/19 10:09:34;;;;;;;22.27;10.50;;;-0.90;99.90;;;;;;6485137;22;20047;-58
2022/12/19 10:12:22;;;;;;;11.32;7.07;;;-0.90;99.90;;;;;;6455619;22;20002;-61
2022/12/19 10:15:01;;;;;;;27.23;11.40;;;-0.80;99.90;;;;;;6459217;22;19987;-60
2022/12/19 10:17:48;;;;;;;27.20;12.20;;;-0.80;99.90;;;;;;6485168;22;20074;-60
2022/12/19 10:20:29;;;;;;;23.48;10.43;;;-0.70;99.90;;;;;;6430815;22;20002;-60
2022/12/19 10:23:18;;;;;;;31.83;10.70;;;-0.70;99.90;;;;;;6457561;22;20004;-58
2022/12/19 10:25:52;;;;;;;15.98;9.65;;;-0.60;99.90;;;;;;6456784;22;20207;-60
2022/12/19 10:28:33;;;;;;;18.67;9.68;;;-0.60;99.90;;;;;;6483992;22;20003;-57
2022/12/19 10:31:25;;;;;;;19.60;9.18;;;-0.70;99.90;;;;;;6455499;22;19992;-60
2022/12/19 10:34:18;;;;;;;18.50;8.55;;;-0.70;99.90;;;;;;6483286;22;19991;-60
2022/12/19 10:36:59;;;;;;;19.25;9.43;;;-0.70;99.90;;;;;;6484886;22;20002;-60
2022/12/19 10:39:51;;;;;;;27.17;11.80;;;-0.80;99.90;;;;;;6457124;22;20300;-60
2022/12/19 10:42:25;;;;;;;21.88;10.88;;;-0.70;99.90;;;;;;6456980;22;20238;-59
2022/12/19 10:44:59;;;;;;;20.45;9.98;;;-0.80;99.90;;;;;;6485364;22;20051;-61
2022/12/19 10:47:31;;;;;;;22.35;10.45;;;-0.70;99.90;;;;;;6458691;22;20275;-57
2022/12/19 10:50:04;;;;;;;17.63;7.97;;;-0.70;99.90;;;;;;6484288;22;20055;-60
2022/12/19 10:52:56;;;;;;;24.67;11.23;;;-0.60;99.90;;;;;;6457024;22;20059;-59
2022/12/19 10:55:42;;;;;;;27.85;11.02;;;-0.60;99.90;;;;;;6466915;22;19992;-58
2022/12/19 10:58:30;;;;;;;21.80;11.10;;;-0.50;99.90;;;;;;6485169;22;20456;-58
2022/12/19 11:01:22;;;;;;;15.83;8.80;;;-0.50;99.90;;;;;;6483433;22;20000;-59
2022/12/19 11:04:20;;;;;;;16.83;8.18;;;-0.60;99.90;;;;;;6431533;22;20018;-58
2022/12/19 11:07:05;;;;;;;22.55;9.90;;;-0.60;99.90;;;;;;6442213;22;20004;-58
2022/12/19 11:09:42;;;;;;;24.70;11.95;;;-0.60;99.90;;;;;;6456293;22;20001;-58
2022/12/19 11:12:17;;;;;;;27.05;12.77;;;-0.60;99.90;;;;;;6456870;22;19998;-60
2022/12/19 11:15:08;;;;;;;19.90;11.13;;;-0.60;99.90;;;;;;6483870;22;20054;-61
2022/12/19 11:17:40;;;;;;;28.60;12.95;;;-0.60;99.90;;;;;;6484972;22;20052;-59
2022/12/19 11:20:21;;;;;;;23.95;10.75;;;-0.50;99.90;;;;;;6482001;22;20007;-59
2022/12/19 11:22:59;;;;;;;20.30;9.65;;;-0.50;99.90;;;;;;6494739;22;20051;-57
2022/12/19 11:25:45;;;;;;;12.75;6.97;;;-0.50;99.90;;;;;;6458174;22;20187;-60
2022/12/19 11:28:24;;;;;;;20.13;10.25;;;-0.70;99.90;;;;;;6455628;22;20075;-60
2022/12/19 11:31:03;;;;;;;14.80;7.37;;;-0.60;99.90;;;;;;6430631;22;20003;-59
2022/12/19 11:33:34;;;;;;;21.17;11.25;;;-0.60;99.90;;;;;;6456889;22;20187;-58
2022/12/19 11:36:46;;;;;;;17.17;7.75;;;-0.60;99.90;;;;;;6457070;22;20054;-59
2022/12/19 11:39:46;;;;;;;19.52;10.20;;;-0.60;99.90;;;;;;6440339;22;20000;-59
2022/12/19 11:42:25;;;;;;;17.15;8.88;;;-0.60;99.90;;;;;;6465297;22;20000;-59
2022/12/19 11:45:39;;;;;;;23.08;11.82;;;-0.60;99.90;;;;;;6455450;22;20004;-58
2022/12/19 11:48:25;;;;;;;15.63;8.60;;;-0.60;99.90;;;;;;6456352;22;20063;-59
2022/12/19 11:51:19;;;;;;;19.70;8.73;;;-0.60;99.90;;;;;;6467037;22;20192;-58
2022/12/19 11:54:20;;;;;;;24.90;11.40;;;-0.50;99.90;;;;;;6483565;22;20424;-58
2022/12/19 11:56:51;;;;;;;20.00;10.70;;;-0.40;99.90;;;;;;6485036;22;20000;-58
2022/12/19 11:59:37;;;;;;;20.92;10.27;;;-0.30;99.90;;;;;;6430469;22;20000;-59
2022/12/19 12:02:45;;;;;;;20.15;11.38;;;-0.40;99.90;;;;;;6429647;22;20000;-58
2022/12/19 12:05:38;;;;;;;23.73;11.27;;;-0.40;99.90;;;;;;6467652;22;20010;-58
2022/12/19 12:08:33;;;;;;;21.93;11.83;;;-0.30;99.90;;;;;;6483136;22;19998;-59
2022/12/19 12:11:27;;;;;;;19.48;9.50;;;-0.20;99.90;;;;;;6483396;22;20055;-60
2022/12/19 12:14:16;;;;;;;25.73;11.73;;;-0.30;99.90;;;;;;6432553;22;19999;-59
2022/12/19 12:17:00;;;;;;;17.98;8.70;;;-0.20;99.90;;;;;;6485619;22;19996;-59
2022/12/19 12:19:43;;;;;;;19.90;10.80;;;-0.20;99.90;;;;;;6458739;22;19999;-59
2022/12/19 12:22:35;;;;;;;15.20;8.82;;;-0.30;99.90;;;;;;6457690;22;19999;-58
2022/12/19 12:25:25;;;;;;;19.50;9.27;;;-0.30;99.90;;;;;;6458055;22;19998;-58
2022/12/19 12:28:19;;;;;;;13.70;7.88;;;-0.40;99.90;;;;;;6485479;22;20063;-58
2022/12/19 12:31:10;;;;;;;15.80;8.95;;;-0.40;99.90;;;;;;6464430;22;20000;-57
2022/12/19 12:34:01;;;;;;;20.80;10.40;;;-0.40;99.90;;;;;;6455982;22;20009;-59
2022/12/19 12:36:46;;;;;;;28.80;13.18;;;-0.30;99.90;;;;;;6458089;22;20245;-58
2022/12/19 12:39:49;;;;;;;20.92;12.48;;;-0.30;99.90;;;;;;6486418;22;20434;-59
2022/12/19 12:42:36;;;;;;;24.55;12.10;;;-0.30;99.90;;;;;;6455838;22;20006;-59
2022/12/19 12:45:18;;;;;;;21.88;10.48;;;-0.30;99.90;;;;;;6450417;22;20426;-58
2022/12/19 12:47:55;;;;;;;22.38;11.77;;;-0.30;99.90;;;;;;6456545;22;19998;-59
2022/12/19 12:50:27;;;;;;;17.73;8.43;;;-0.50;99.90;;;;;;6495107;22;20000;-58
2022/12/19 12:53:06;;;;;;;21.88;10.77;;;-0.40;99.90;;;;;;6455373;22;20014;-58
2022/12/19 12:55:41;;;;;;;20.98;9.82;;;-0.40;99.90;;;;;;6454593;22;20403;-58
2022/12/19 12:58:45;;;;;;;18.35;9.45;;;-0.30;99.90;;;;;;6485185;22;19995;-58
2022/12/19 13:01:28;;;;;;;14.60;8.45;;;-0.30;99.90;;;;;;6326439;23;20278;-58
2022/12/19 13:04:05;;;;;;;17.33;9.10;;;-0.30;99.90;;;;;;6342965;22;20364;-59
2022/12/19 13:06:49;;;;;;;15.02;8.73;;;-0.30;99.90;;;;;;6440921;22;20011;-58
2022/12/19 13:09:25;;;;;;;25.55;10.93;;;-0.20;99.90;;;;;;6484792;22;19995;-58
2022/12/19 13:15:33;;;;;;;20.75;10.27;;;-0.20;99.90;;;;;;6362278;23;20065;-59
2022/12/19 13:18:25;;;;;;;26.20;12.10;;;-0.20;99.90;;;;;;6396700;22;19993;-58
2022/12/19 13:21:00;;;;;;;14.98;7.78;;;-0.20;99.90;;;;;;6387433;23;20351;-58
2022/12/19 13:23:40;;;;;;;26.17;11.90;;;-0.30;99.90;;;;;;6387373;23;20000;-59
2022/12/19 13:26:48;;;;;;;26.60;12.27;;;-0.40;99.90;;;;;;6386834;23;20000;-59
2022/12/19 13:30:06;;;;;;;22.52;11.85;;;-0.30;99.90;;;;;;6387816;23;19997;-58
2022/12/19 13:32:37;;;;;;;22.20;10.52;;;-0.20;99.90;;;;;;6349571;23;20001;-59
2022/12/19 13:35:09;;;;;;;30.27;13.13;;;-0.30;99.90;;;;;;6387984;23;20007;-58